METAR ET TAF INFORMATION
METAR FOR LFRS
ADDS - METARS form results

(1708 UTC 22 July 2019)
Data provider http://aviationweather.gov/metar/data/
 
METAR text: LFRS 221700Z AUTO 17005KT 130V200 CAVOK 33/13 Q1018 NOSIG
Conditions at: LFRS (NANTES/CHATEAU B, FR) observed 1700 UTC 22 July 2019
Temperature: 33.0°C (91°F)
Dewpoint: 13.0°C (55°F) [RH = 30%]
Pressure (altimeter): 30.06 inches Hg (1018.0 mb)
Winds: from the S (170 degrees) at 6 MPH (5 knots; 2.6 m/s)
Visibility: 6 or more miles (10+ km)
Ceiling: ceiling and visibility are OK
Clouds: unknown
Weather: no significant weather observed at this time

METAR text: LFRS 221630Z AUTO 15005KT 070V200 CAVOK 34/11 Q1019 NOSIG
Conditions at: LFRS (NANTES/CHATEAU B, FR) observed 1630 UTC 22 July 2019
Temperature: 34.0°C (93°F)
Dewpoint: 11.0°C (52°F) [RH = 25%]
Pressure (altimeter): 30.09 inches Hg (1019.0 mb)
Winds: from the SSE (150 degrees) at 6 MPH (5 knots; 2.6 m/s)
Visibility: 6 or more miles (10+ km)
Ceiling: ceiling and visibility are OK
Clouds: unknown
Weather: no significant weather observed at this time

Forecast for: LFRS (NANTES/CHATEAU B, FR)
Text: TAF LFRS 221100Z 2212/2318 VRB03KT CAVOK
Forecast period: 1200 UTC 22 July 2019 to 0900 UTC 23 July 2019
Forecast type: FROM: standard forecast or significant change
Winds: variable direction winds at 3 MPH (3 knots; 1.5 m/s)
Visibility: 6 or more miles 10+ km)
Ceiling: unknown
Clouds: missing
Weather: NSW  (no significant weather)
Text: BECMG 2309/2312 14012KT
Forecast period: 0900 to 1800 UTC 23 July 2019
Forecast type: BECOMING: Conditions expected to become as follows by 1200 UTC 23 July 2019
Winds: from the SE (140 degrees) at 14 MPH (12 knots; 6.2 m/s)
Visibility: 6 or more miles 10+ km)
Ceiling: unknown
Clouds: missing
Weather: NSW  (no significant weather)
Text: TEMPO 2315/2318 22015G25KT 4000 SHRA SCT080TCU
Forecast period: 1500 to 1800 UTC 23 July 2019
Forecast type: TEMPORARY: The following changes expected for less than half the time period
Winds: from the SW (220 degrees) at 17 MPH (15 knots; 7.7 m/s)
gusting to 29 MPH (25 knots; 12.9 m/s)
Visibility: 2.49 miles (4.01 km)
Ceiling: at least 12,000 feet AGL
Clouds: scattered clouds at 8000 feet AGL
Weather: SHRA  (rain showers)

 AÉROPORT DE AÉROPORT

 INFORMATIONS DE PISTE
Piste 03 Longueur de la piste 9514 ft Largeur de la piste 148 ft
Élévation de la piste 73 ft Seuil de la piste déplacés 0 ft Runway heading 28
Piste 21 Longueur de la piste 9514 ft Largeur de la piste 148 ft
Élévation de la piste 86 ft Seuil de la piste déplacés 694 ft Runway heading 208

 AÉROPORT FRÉQUENCES
Type APP Nom APP Féquence 130.275 MHZ
Type ATIS Nom ATIS Féquence 126.925 MHZ
Type GND Nom GND Féquence 121.875 MHZ
Type INFO Nom INFO Féquence 129.875 MHZ
Type TWR Nom TWR Féquence 118.65 MHZ

 SIDA DE NAVIGATION
Type NDB Nom Nantes Féquence 369 KHZ
Type VOR-DME Nom Nantes Féquence 115500 KHZ



Powered by Virtual Airlines Manager [v2.6.2]